sensor_id;sensor_type;location;lat;lon;timestamp;pressure;altitude;pressure_sealevel;temperature;humidity
78299;BME280;67556;55.656;12.590;2023-04-24T00:00:21;100347.09;;;9.06;74.55
78299;BME280;67556;55.656;12.590;2023-04-24T00:02:47;100338.38;;;9.10;75.09
78299;BME280;67556;55.656;12.590;2023-04-24T00:05:15;100329.53;;;9.11;74.61
78299;BME280;67556;55.656;12.590;2023-04-24T00:07:44;100335.03;;;9.17;74.28
78299;BME280;67556;55.656;12.590;2023-04-24T00:10:18;100325.44;;;9.21;73.77
78299;BME280;67556;55.656;12.590;2023-04-24T00:12:47;100325.47;;;9.22;73.80
78299;BME280;67556;55.656;12.590;2023-04-24T00:15:28;100323.03;;;9.29;73.13
78299;BME280;67556;55.656;12.590;2023-04-24T00:17:55;100314.06;;;9.25;73.06
78299;BME280;67556;55.656;12.590;2023-04-24T00:20:22;100317.59;;;9.25;72.76
78299;BME280;67556;55.656;12.590;2023-04-24T00:22:54;100310.50;;;9.24;73.00
78299;BME280;67556;55.656;12.590;2023-04-24T00:25:22;100311.44;;;9.27;72.31
78299;BME280;67556;55.656;12.590;2023-04-24T00:27:50;100319.63;;;9.33;72.46
78299;BME280;67556;55.656;12.590;2023-04-24T00:30:17;100319.63;;;9.33;72.68
78299;BME280;67556;55.656;12.590;2023-04-24T00:32:50;100328.34;;;9.29;72.03
78299;BME280;67556;55.656;12.590;2023-04-24T00:35:16;100317.41;;;9.19;70.95
78299;BME280;67556;55.656;12.590;2023-04-24T00:37:46;100317.31;;;9.16;71.65
78299;BME280;67556;55.656;12.590;2023-04-24T00:40:18;100310.22;;;9.17;70.68
78299;BME280;67556;55.656;12.590;2023-04-24T00:42:46;100315.69;;;9.21;70.98
78299;BME280;67556;55.656;12.590;2023-04-24T00:45:14;100305.19;;;9.24;70.39
78299;BME280;67556;55.656;12.590;2023-04-24T00:47:42;100290.09;;;9.23;68.79
78299;BME280;67556;55.656;12.590;2023-04-24T00:50:10;100294.09;;;9.11;69.50
78299;BME280;67556;55.656;12.590;2023-04-24T00:52:40;100287.56;;;9.01;69.38
78299;BME280;67556;55.656;12.590;2023-04-24T00:55:25;100292.84;;;8.99;69.74
78299;BME280;67556;55.656;12.590;2023-04-24T00:57:52;100286.34;;;8.90;69.81
78299;BME280;67556;55.656;12.590;2023-04-24T01:00:38;100279.03;;;8.84;70.24
78299;BME280;67556;55.656;12.590;2023-04-24T01:03:19;100280.72;;;8.81;70.42
78299;BME280;67556;55.656;12.590;2023-04-24T01:05:46;100272.53;;;8.74;70.53
78299;BME280;67556;55.656;12.590;2023-04-24T01:08:28;100267.78;;;8.64;70.96
78299;BME280;67556;55.656;12.590;2023-04-24T01:11:03;100270.47;;;8.66;71.46
78299;BME280;67556;55.656;12.590;2023-04-24T01:13:48;100271.09;;;8.59;71.64
78299;BME280;67556;55.656;12.590;2023-04-24T01:16:16;100282.56;;;8.58;71.80
78299;BME280;67556;55.656;12.590;2023-04-24T01:18:42;100285.09;;;8.55;71.94
78299;BME280;67556;55.656;12.590;2023-04-24T01:21:13;100275.03;;;8.44;72.59
78299;BME280;67556;55.656;12.590;2023-04-24T01:23:42;100270.63;;;8.45;72.63
78299;BME280;67556;55.656;12.590;2023-04-24T01:26:10;100280.34;;;8.44;73.11
78299;BME280;67556;55.656;12.590;2023-04-24T01:28:37;100271.91;;;8.32;73.34
78299;BME280;67556;55.656;12.590;2023-04-24T01:31:04;100271.47;;;8.44;73.24
78299;BME280;67556;55.656;12.590;2023-04-24T01:33:34;100261.94;;;8.49;73.24
78299;BME280;67556;55.656;12.590;2023-04-24T01:36:01;100258.84;;;8.62;72.52
78299;BME280;67556;55.656;12.590;2023-04-24T01:38:28;100252.03;;;8.70;72.46
78299;BME280;67556;55.656;12.590;2023-04-24T01:40:57;100232.94;;;8.81;72.32
78299;BME280;67556;55.656;12.590;2023-04-24T01:43:30;100236.47;;;8.81;72.40
78299;BME280;67556;55.656;12.590;2023-04-24T01:45:58;100226.78;;;8.83;72.41
78299;BME280;67556;55.656;12.590;2023-04-24T01:48:31;100228.72;;;8.89;72.06
78299;BME280;67556;55.656;12.590;2023-04-24T01:51:06;100233.59;;;8.75;72.73
78299;BME280;67556;55.656;12.590;2023-04-24T01:53:39;100227.41;;;8.74;73.35
78299;BME280;67556;55.656;12.590;2023-04-24T01:56:28;100233.59;;;8.75;74.08
78299;BME280;67556;55.656;12.590;2023-04-24T01:58:56;100229.31;;;8.79;74.63
78299;BME280;67556;55.656;12.590;2023-04-24T02:01:25;100226.47;;;8.72;75.84
78299;BME280;67556;55.656;12.590;2023-04-24T02:04:03;100230.59;;;8.64;76.84
78299;BME280;67556;55.656;12.590;2023-04-24T02:06:29;100214.28;;;8.52;77.64
78299;BME280;67556;55.656;12.590;2023-04-24T02:09:02;100222.13;;;8.49;78.52
78299;BME280;67556;55.656;12.590;2023-04-24T02:11:31;100224.78;;;8.49;78.94
78299;BME280;67556;55.656;12.590;2023-04-24T02:14:00;100219.25;;;8.43;79.69
78299;BME280;67556;55.656;12.590;2023-04-24T02:16:28;100212.06;;;8.39;80.23
78299;BME280;67556;55.656;12.590;2023-04-24T02:18:58;100217.22;;;8.36;80.97
78299;BME280;67556;55.656;12.590;2023-04-24T02:21:30;100210.34;;;8.41;81.31
78299;BME280;67556;55.656;12.590;2023-04-24T02:24:05;100207.72;;;8.42;81.50
78299;BME280;67556;55.656;12.590;2023-04-24T02:26:35;100192.72;;;8.43;82.23
78299;BME280;67556;55.656;12.590;2023-04-24T02:29:03;100195.53;;;8.47;82.65
78299;BME280;67556;55.656;12.590;2023-04-24T02:31:30;100181.38;;;8.47;82.68
78299;BME280;67556;55.656;12.590;2023-04-24T02:33:59;100193.09;;;8.55;83.01
78299;BME280;67556;55.656;12.590;2023-04-24T02:36:26;100186.91;;;8.55;83.29
78299;BME280;67556;55.656;12.590;2023-04-24T02:38:59;100183.44;;;8.56;83.19
78299;BME280;67556;55.656;12.590;2023-04-24T02:41:27;100179.09;;;8.59;83.30
78299;BME280;67556;55.656;12.590;2023-04-24T02:44:00;100180.84;;;8.59;82.95
78299;BME280;67556;55.656;12.590;2023-04-24T02:46:38;100168.31;;;8.55;83.62
78299;BME280;67556;55.656;12.590;2023-04-24T02:49:07;100161.38;;;8.58;83.29
78299;BME280;67556;55.656;12.590;2023-04-24T02:51:34;100162.34;;;8.60;83.56
78299;BME280;67556;55.656;12.590;2023-04-24T02:54:07;100152.94;;;8.71;83.21
78299;BME280;67556;55.656;12.590;2023-04-24T02:56:36;100166.97;;;8.67;82.88
78299;BME280;67556;55.656;12.590;2023-04-24T02:59:04;100167.78;;;8.65;83.07
78299;BME280;67556;55.656;12.590;2023-04-24T03:01:44;100160.59;;;8.61;83.19
78299;BME280;67556;55.656;12.590;2023-04-24T03:04:10;100171.88;;;8.55;83.68
78299;BME280;67556;55.656;12.590;2023-04-24T03:06:37;100171.88;;;8.55;84.15
78299;BME280;67556;55.656;12.590;2023-04-24T03:09:04;100171.06;;;8.56;83.88
78299;BME280;67556;55.656;12.590;2023-04-24T03:11:41;100169.22;;;8.55;83.98
78299;BME280;67556;55.656;12.590;2023-04-24T03:14:11;100152.41;;;8.55;84.42
78299;BME280;67556;55.656;12.590;2023-04-24T03:16:54;100149.84;;;8.58;84.36
78299;BME280;67556;55.656;12.590;2023-04-24T03:19:34;100138.22;;;8.54;84.05
78299;BME280;67556;55.656;12.590;2023-04-24T03:22:05;100151.50;;;8.54;84.36
78299;BME280;67556;55.656;12.590;2023-04-24T03:24:32;100132.91;;;8.54;84.87
78299;BME280;67556;55.656;12.590;2023-04-24T03:27:05;100127.84;;;8.60;84.59
78299;BME280;67556;55.656;12.590;2023-04-24T03:29:34;100119.13;;;8.64;84.65
78299;BME280;67556;55.656;12.590;2023-04-24T03:32:01;100124.59;;;8.70;84.57
78299;BME280;67556;55.656;12.590;2023-04-24T03:34:28;100106.22;;;8.77;84.07
78299;BME280;67556;55.656;12.590;2023-04-24T03:36:55;100111.72;;;8.83;84.30
78299;BME280;67556;55.656;12.590;2023-04-24T03:39:22;100096.66;;;8.82;83.58
78299;BME280;67556;55.656;12.590;2023-04-24T03:41:51;100100.34;;;8.87;83.69
78299;BME280;67556;55.656;12.590;2023-04-24T03:44:18;100117.41;;;8.95;83.38
78299;BME280;67556;55.656;12.590;2023-04-24T03:46:52;100107.81;;;9.00;83.42
78299;BME280;67556;55.656;12.590;2023-04-24T03:49:24;100107.09;;;9.06;83.82
78299;BME280;67556;55.656;12.590;2023-04-24T03:51:52;100104.53;;;9.09;83.34
78299;BME280;67556;55.656;12.590;2023-04-24T03:54:19;100097.59;;;9.14;83.31
78299;BME280;67556;55.656;12.590;2023-04-24T03:56:59;100106.66;;;9.20;83.25
78299;BME280;67556;55.656;12.590;2023-04-24T03:59:27;100108.66;;;9.28;82.81
78299;BME280;67556;55.656;12.590;2023-04-24T04:01:56;100105.13;;;9.29;83.11
78299;BME280;67556;55.656;12.590;2023-04-24T04:04:22;100108.66;;;9.28;83.61
78299;BME280;67556;55.656;12.590;2023-04-24T04:06:50;100105.97;;;9.28;84.04
78299;BME280;67556;55.656;12.590;2023-04-24T04:09:18;100099.69;;;9.24;83.45
78299;BME280;67556;55.656;12.590;2023-04-24T04:11:46;100100.31;;;9.15;84.51
78299;BME280;67556;55.656;12.590;2023-04-24T04:14:14;100095.69;;;9.10;85.21
78299;BME280;67556;55.656;12.590;2023-04-24T04:16:40;100087.59;;;9.05;85.00
78299;BME280;67556;55.656;12.590;2023-04-24T04:19:08;100101.56;;;8.98;85.76
78299;BME280;67556;55.656;12.590;2023-04-24T04:21:36;100108.63;;;8.97;86.30
78299;BME280;67556;55.656;12.590;2023-04-24T04:24:04;100101.44;;;8.93;86.65
78299;BME280;67556;55.656;12.590;2023-04-24T04:26:34;100085.19;;;8.84;86.32
78299;BME280;67556;55.656;12.590;2023-04-24T04:29:04;100098.72;;;8.92;86.47
78299;BME280;67556;55.656;12.590;2023-04-24T04:31:32;100097.94;;;8.96;86.68
78299;BME280;67556;55.656;12.590;2023-04-24T04:34:00;100085.44;;;8.92;86.57
78299;BME280;67556;55.656;12.590;2023-04-24T04:36:29;100088.19;;;8.95;86.84
78299;BME280;67556;55.656;12.590;2023-04-24T04:38:56;100082.88;;;8.95;86.95
78299;BME280;67556;55.656;12.590;2023-04-24T04:41:24;100086.47;;;8.97;87.51
78299;BME280;67556;55.656;12.590;2023-04-24T04:43:51;100081.97;;;8.94;87.42
78299;BME280;67556;55.656;12.590;2023-04-24T04:46:19;100068.56;;;8.90;87.07
78299;BME280;67556;55.656;12.590;2023-04-24T04:48:45;100083.03;;;9.01;86.82
78299;BME280;67556;55.656;12.590;2023-04-24T04:51:11;100073.94;;;8.93;87.28
78299;BME280;67556;55.656;12.590;2023-04-24T04:53:40;100072.34;;;8.98;87.12
78299;BME280;67556;55.656;12.590;2023-04-24T04:56:06;100057.38;;;9.02;86.79
78299;BME280;67556;55.656;12.590;2023-04-24T04:58:33;100057.53;;;9.06;86.70
78299;BME280;67556;55.656;12.590;2023-04-24T05:01:01;100060.19;;;9.06;87.21
78299;BME280;67556;55.656;12.590;2023-04-24T05:03:29;100046.97;;;9.09;87.00
78299;BME280;67556;55.656;12.590;2023-04-24T05:05:57;100056.84;;;9.13;87.51
78299;BME280;67556;55.656;12.590;2023-04-24T05:08:26;100043.97;;;9.27;86.22
78299;BME280;67556;55.656;12.590;2023-04-24T05:10:55;100051.94;;;9.27;86.55
78299;BME280;67556;55.656;12.590;2023-04-24T05:13:24;100060.97;;;9.34;86.64
78299;BME280;67556;55.656;12.590;2023-04-24T05:15:57;100047.00;;;9.41;86.42
78299;BME280;67556;55.656;12.590;2023-04-24T05:18:24;100044.94;;;9.31;86.68
78299;BME280;67556;55.656;12.590;2023-04-24T05:20:57;100061.22;;;9.43;86.12
78299;BME280;67556;55.656;12.590;2023-04-24T05:23:26;100055.13;;;9.47;85.87
78299;BME280;67556;55.656;12.590;2023-04-24T05:25:53;100053.19;;;9.40;86.17
78299;BME280;67556;55.656;12.590;2023-04-24T05:28:22;100053.22;;;9.41;86.49
78299;BME280;67556;55.656;12.590;2023-04-24T05:30:49;100052.47;;;9.47;86.31
78299;BME280;67556;55.656;12.590;2023-04-24T05:33:17;100049.69;;;9.42;86.10
78299;BME280;67556;55.656;12.590;2023-04-24T05:35:45;100054.09;;;9.42;86.62
78299;BME280;67556;55.656;12.590;2023-04-24T05:38:13;100042.59;;;9.41;86.32
78299;BME280;67556;55.656;12.590;2023-04-24T05:40:42;100048.88;;;9.45;86.42
78299;BME280;67556;55.656;12.590;2023-04-24T05:43:19;100047.16;;;9.47;86.01
78299;BME280;67556;55.656;12.590;2023-04-24T05:45:49;100041.94;;;9.50;86.35
78299;BME280;67556;55.656;12.590;2023-04-24T05:48:16;100058.75;;;9.49;85.79
78299;BME280;67556;55.656;12.590;2023-04-24T05:50:44;100060.53;;;9.50;85.83
78299;BME280;67556;55.656;12.590;2023-04-24T05:53:11;100056.09;;;9.49;86.60
78299;BME280;67556;55.656;12.590;2023-04-24T05:55:40;100062.19;;;9.45;86.21
78299;BME280;67556;55.656;12.590;2023-04-24T05:58:07;100068.41;;;9.47;85.81
78299;BME280;67556;55.656;12.590;2023-04-24T06:00:40;100080.84;;;9.48;86.10
78299;BME280;67556;55.656;12.590;2023-04-24T06:03:11;100088.88;;;9.49;85.81
78299;BME280;67556;55.656;12.590;2023-04-24T06:05:39;100096.75;;;9.46;85.92
78299;BME280;67556;55.656;12.590;2023-04-24T06:08:06;100087.13;;;9.50;85.98
78299;BME280;67556;55.656;12.590;2023-04-24T06:10:34;100094.19;;;9.49;85.83
78299;BME280;67556;55.656;12.590;2023-04-24T06:13:01;100099.41;;;9.45;85.58
78299;BME280;67556;55.656;12.590;2023-04-24T06:15:28;100093.06;;;9.40;85.90
78299;BME280;67556;55.656;12.590;2023-04-24T06:17:57;100092.75;;;9.31;86.67
78299;BME280;67556;55.656;12.590;2023-04-24T06:20:27;100102.69;;;9.36;86.35
78299;BME280;67556;55.656;12.590;2023-04-24T06:22:59;100108.03;;;9.38;85.75
78299;BME280;67556;55.656;12.590;2023-04-24T06:25:25;100112.50;;;9.39;86.36
78299;BME280;67556;55.656;12.590;2023-04-24T06:27:54;100110.88;;;9.44;85.83
78299;BME280;67556;55.656;12.590;2023-04-24T06:30:22;100115.34;;;9.45;86.37
78299;BME280;67556;55.656;12.590;2023-04-24T06:32:50;100111.06;;;9.52;86.21
78299;BME280;67556;55.656;12.590;2023-04-24T06:35:18;100111.97;;;9.52;86.53
78299;BME280;67556;55.656;12.590;2023-04-24T06:37:46;100112.13;;;9.57;86.44
78299;BME280;67556;55.656;12.590;2023-04-24T06:40:14;100117.38;;;9.55;86.76
78299;BME280;67556;55.656;12.590;2023-04-24T06:42:40;100110.28;;;9.54;86.18
78299;BME280;67556;55.656;12.590;2023-04-24T06:45:14;100111.84;;;9.47;86.16
78299;BME280;67556;55.656;12.590;2023-04-24T06:47:48;100105.47;;;9.41;86.57
78299;BME280;67556;55.656;12.590;2023-04-24T06:50:16;100113.22;;;9.33;87.04
78299;BME280;67556;55.656;12.590;2023-04-24T06:52:46;100108.56;;;9.26;86.97
78299;BME280;67556;55.656;12.590;2023-04-24T06:55:13;100104.84;;;9.19;87.47
78299;BME280;67556;55.656;12.590;2023-04-24T06:57:43;100102.09;;;9.16;87.48
78299;BME280;67556;55.656;12.590;2023-04-24T07:00:12;100085.38;;;9.19;87.31
78299;BME280;67556;55.656;12.590;2023-04-24T07:02:40;100078.19;;;9.16;87.08
78299;BME280;67556;55.656;12.590;2023-04-24T07:05:12;100071.00;;;9.12;87.62
78299;BME280;67556;55.656;12.590;2023-04-24T07:07:41;100078.81;;;9.08;87.41
78299;BME280;67556;55.656;12.590;2023-04-24T07:10:10;100078.03;;;9.10;87.90
78299;BME280;67556;55.656;12.590;2023-04-24T07:12:37;100082.50;;;9.13;87.55
78299;BME280;67556;55.656;12.590;2023-04-24T07:15:04;100070.06;;;9.10;87.78
78299;BME280;67556;55.656;12.590;2023-04-24T07:17:33;100072.66;;;9.09;87.74
78299;BME280;67556;55.656;12.590;2023-04-24T07:20:01;100063.78;;;9.08;87.78
78299;BME280;67556;55.656;12.590;2023-04-24T07:22:28;100061.16;;;9.10;88.21
78299;BME280;67556;55.656;12.590;2023-04-24T07:24:55;100056.78;;;9.10;87.99
78299;BME280;67556;55.656;12.590;2023-04-24T07:27:25;100046.94;;;9.08;87.97
78299;BME280;67556;55.656;12.590;2023-04-24T07:29:51;100049.84;;;9.15;87.55
78299;BME280;67556;55.656;12.590;2023-04-24T07:32:19;100054.28;;;9.16;87.14
78299;BME280;67556;55.656;12.590;2023-04-24T07:34:46;100042.78;;;9.17;87.49
78299;BME280;67556;55.656;12.590;2023-04-24T07:37:13;100049.88;;;9.17;87.42
78299;BME280;67556;55.656;12.590;2023-04-24T07:39:46;100032.25;;;9.20;87.08
78299;BME280;67556;55.656;12.590;2023-04-24T07:42:14;100049.28;;;9.27;86.91
78299;BME280;67556;55.656;12.590;2023-04-24T07:44:41;100044.78;;;9.24;86.50
78299;BME280;67556;55.656;12.590;2023-04-24T07:47:09;100038.44;;;9.19;86.09
78299;BME280;67556;55.656;12.590;2023-04-24T07:49:37;100046.34;;;9.18;85.60
78299;BME280;67556;55.656;12.590;2023-04-24T07:52:06;100041.72;;;9.11;85.44
78299;BME280;67556;55.656;12.590;2023-04-24T07:54:33;100030.22;;;9.10;85.87
78299;BME280;67556;55.656;12.590;2023-04-24T07:57:02;100035.34;;;9.04;85.62
78299;BME280;67556;55.656;12.590;2023-04-24T07:59:29;100028.88;;;8.94;85.61
78299;BME280;67556;55.656;12.590;2023-04-24T08:02:03;100052.06;;;9.02;86.07
78299;BME280;67556;55.656;12.590;2023-04-24T08:04:29;100047.44;;;8.94;85.80
78299;BME280;67556;55.656;12.590;2023-04-24T08:06:57;100042.00;;;8.90;86.06
78299;BME280;67556;55.656;12.590;2023-04-24T08:09:23;100033.19;;;8.91;86.22
78299;BME280;67556;55.656;12.590;2023-04-24T08:11:49;100032.97;;;8.85;85.15
78299;BME280;67556;55.656;12.590;2023-04-24T08:14:16;100037.69;;;8.93;85.52
78299;BME280;67556;55.656;12.590;2023-04-24T08:16:42;100034.31;;;8.99;85.80
78299;BME280;67556;55.656;12.590;2023-04-24T08:19:11;100036.09;;;9.00;85.38
78299;BME280;67556;55.656;12.590;2023-04-24T08:21:37;100047.75;;;9.05;85.24
78299;BME280;67556;55.656;12.590;2023-04-24T08:24:05;100043.31;;;9.04;85.53
78299;BME280;67556;55.656;12.590;2023-04-24T08:26:33;100041.31;;;8.97;85.37
78299;BME280;67556;55.656;12.590;2023-04-24T08:28:59;100031.41;;;8.91;85.38
78299;BME280;67556;55.656;12.590;2023-04-24T08:31:26;100025.34;;;8.95;85.50
78299;BME280;67556;55.656;12.590;2023-04-24T08:33:52;100023.56;;;8.94;85.26
78299;BME280;67556;55.656;12.590;2023-04-24T08:36:20;100032.41;;;8.95;85.21
78299;BME280;67556;55.656;12.590;2023-04-24T08:38:46;100035.06;;;8.95;85.35
78299;BME280;67556;55.656;12.590;2023-04-24T08:41:14;100031.44;;;8.93;85.02
78299;BME280;67556;55.656;12.590;2023-04-24T08:43:42;100035.94;;;8.94;84.93
78299;BME280;67556;55.656;12.590;2023-04-24T08:46:09;100026.06;;;8.90;84.43
78299;BME280;67556;55.656;12.590;2023-04-24T08:48:36;100033.97;;;8.88;85.07
78299;BME280;67556;55.656;12.590;2023-04-24T08:51:06;100032.19;;;8.87;84.93
78299;BME280;67556;55.656;12.590;2023-04-24T08:53:36;100034.88;;;8.89;85.43
78299;BME280;67556;55.656;12.590;2023-04-24T08:56:03;100034.03;;;8.90;85.29
78299;BME280;67556;55.656;12.590;2023-04-24T08:58:30;100026.84;;;8.86;84.64
78299;BME280;67556;55.656;12.590;2023-04-24T09:00:57;100042.00;;;8.90;84.82
78299;BME280;67556;55.656;12.590;2023-04-24T09:03:27;100026.97;;;8.90;85.05
78299;BME280;67556;55.656;12.590;2023-04-24T09:05:55;100036.00;;;8.97;85.44
78299;BME280;67556;55.656;12.590;2023-04-24T09:08:24;100033.53;;;9.03;85.57
78299;BME280;67556;55.656;12.590;2023-04-24T09:10:53;100029.34;;;9.11;85.51
78299;BME280;67556;55.656;12.590;2023-04-24T09:13:21;100033.19;;;9.22;85.35
78299;BME280;67556;55.656;12.590;2023-04-24T09:15:47;100034.31;;;9.31;84.96
78299;BME280;67556;55.656;12.590;2023-04-24T09:18:14;100030.97;;;9.38;84.93
78299;BME280;67556;55.656;12.590;2023-04-24T09:21:01;100025.97;;;9.50;85.06
78299;BME280;67556;55.656;12.590;2023-04-24T09:23:28;100031.53;;;9.59;84.46
78299;BME280;67556;55.656;12.590;2023-04-24T09:25:57;100031.88;;;9.71;84.83
78299;BME280;67556;55.656;12.590;2023-04-24T09:28:26;100039.06;;;9.75;84.47
78299;BME280;67556;55.656;12.590;2023-04-24T09:31:07;100026.72;;;9.78;84.15
78299;BME280;67556;55.656;12.590;2023-04-24T09:33:35;100023.34;;;9.85;84.33
78299;BME280;67556;55.656;12.590;2023-04-24T09:36:03;100020.78;;;9.89;83.58
78299;BME280;67556;55.656;12.590;2023-04-24T09:38:34;100027.25;;;9.99;82.56
78299;BME280;67556;55.656;12.590;2023-04-24T09:41:05;100031.97;;;10.11;84.27
78299;BME280;67556;55.656;12.590;2023-04-24T09:43:32;100029.56;;;10.21;82.98
78299;BME280;67556;55.656;12.590;2023-04-24T09:46:04;100014.50;;;10.22;81.28
78299;BME280;67556;55.656;12.590;2023-04-24T09:48:31;100025.34;;;10.28;82.34
78299;BME280;67556;55.656;12.590;2023-04-24T09:50:58;100024.50;;;10.31;81.24
78299;BME280;67556;55.656;12.590;2023-04-24T09:53:27;100032.38;;;10.26;80.71
78299;BME280;67556;55.656;12.590;2023-04-24T09:55:54;100036.81;;;10.26;81.40
78299;BME280;67556;55.656;12.590;2023-04-24T09:58:26;100038.59;;;10.27;81.17
78299;BME280;67556;55.656;12.590;2023-04-24T10:00:54;100028.06;;;10.31;81.22
78299;BME280;67556;55.656;12.590;2023-04-24T10:03:23;100025.47;;;10.34;80.34
78299;BME280;67556;55.656;12.590;2023-04-24T10:05:51;100024.66;;;10.37;80.11
78299;BME280;67556;55.656;12.590;2023-04-24T10:08:18;100015.94;;;10.44;80.64
78299;BME280;67556;55.656;12.590;2023-04-24T10:10:46;100019.53;;;10.46;78.86
78299;BME280;67556;55.656;12.590;2023-04-24T10:13:14;100013.34;;;10.47;79.47
78299;BME280;67556;55.656;12.590;2023-04-24T10:15:42;100017.09;;;10.57;79.54
78299;BME280;67556;55.656;12.590;2023-04-24T10:18:09;100015.59;;;10.68;79.94
78299;BME280;67556;55.656;12.590;2023-04-24T10:20:39;100014.97;;;10.80;78.94
78299;BME280;67556;55.656;12.590;2023-04-24T10:23:07;100019.66;;;10.91;79.47
78299;BME280;67556;55.656;12.590;2023-04-24T10:25:34;100014.44;;;10.97;78.87
78299;BME280;67556;55.656;12.590;2023-04-24T10:28:02;100012.94;;;11.10;78.06
78299;BME280;67556;55.656;12.590;2023-04-24T10:30:30;100013.00;;;11.15;78.03
78299;BME280;67556;55.656;12.590;2023-04-24T10:33:01;100009.69;;;11.25;77.81
78299;BME280;67556;55.656;12.590;2023-04-24T10:35:30;100007.69;;;11.16;76.50
78299;BME280;67556;55.656;12.590;2023-04-24T10:37:59;100017.56;;;11.20;77.36
78299;BME280;67556;55.656;12.590;2023-04-24T10:40:30;100022.13;;;11.26;77.05
78299;BME280;67556;55.656;12.590;2023-04-24T10:42:58;100007.66;;;11.13;74.95
78299;BME280;67556;55.656;12.590;2023-04-24T10:45:24;100022.69;;;11.08;75.26
78299;BME280;67556;55.656;12.590;2023-04-24T10:47:52;100021.00;;;11.13;75.39
78299;BME280;67556;55.656;12.590;2023-04-24T10:50:20;100018.34;;;11.15;74.73
78299;BME280;67556;55.656;12.590;2023-04-24T10:52:47;100022.53;;;11.02;73.68
78299;BME280;67556;55.656;12.590;2023-04-24T10:55:16;100012.75;;;11.01;75.09
78299;BME280;67556;55.656;12.590;2023-04-24T10:58:03;100015.47;;;11.04;74.76
78299;BME280;67556;55.656;12.590;2023-04-24T11:00:30;100013.72;;;11.06;74.30
78299;BME280;67556;55.656;12.590;2023-04-24T11:02:57;100008.28;;;11.00;74.60
78299;BME280;67556;55.656;12.590;2023-04-24T11:05:50;100021.91;;;11.15;75.36
78299;BME280;67556;55.656;12.590;2023-04-24T11:08:23;100014.81;;;11.16;75.02
78299;BME280;67556;55.656;12.590;2023-04-24T11:10:55;100017.53;;;11.19;74.69
78299;BME280;67556;55.656;12.590;2023-04-24T11:13:24;100018.56;;;11.26;75.20
78299;BME280;67556;55.656;12.590;2023-04-24T11:16:20;100011.66;;;11.35;74.86
78299;BME280;67556;55.656;12.590;2023-04-24T11:18:50;100016.97;;;11.34;74.90
78299;BME280;67556;55.656;12.590;2023-04-24T11:21:22;100017.16;;;11.44;75.66
78299;BME280;67556;55.656;12.590;2023-04-24T11:23:48;100019.09;;;11.53;74.94
78299;BME280;67556;55.656;12.590;2023-04-24T11:26:18;100021.19;;;11.71;74.87
78299;BME280;67556;55.656;12.590;2023-04-24T11:28:46;100015.09;;;11.80;74.36
78299;BME280;67556;55.656;12.590;2023-04-24T11:31:39;100018.22;;;12.03;74.02
78299;BME280;67556;55.656;12.590;2023-04-24T11:34:08;100022.78;;;12.10;73.78
78299;BME280;67556;55.656;12.590;2023-04-24T11:36:36;100015.06;;;12.30;72.61
78299;BME280;67556;55.656;12.590;2023-04-24T11:39:06;100020.59;;;12.39;72.86
78299;BME280;67556;55.656;12.590;2023-04-24T11:41:33;100026.06;;;12.51;72.86
78299;BME280;67556;55.656;12.590;2023-04-24T11:44:03;100023.66;;;12.68;70.94
78299;BME280;67556;55.656;12.590;2023-04-24T11:46:31;100015.75;;;12.76;71.02
78299;BME280;67556;55.656;12.590;2023-04-24T11:48:59;100015.78;;;12.77;70.44
78299;BME280;67556;55.656;12.590;2023-04-24T11:51:27;100015.19;;;12.99;70.23
78299;BME280;67556;55.656;12.590;2023-04-24T11:53:55;100017.78;;;12.95;68.75
78299;BME280;67556;55.656;12.590;2023-04-24T11:56:22;100022.25;;;12.96;69.56
78299;BME280;67556;55.656;12.590;2023-04-24T11:58:52;100020.66;;;13.10;67.67
78299;BME280;67556;55.656;12.590;2023-04-24T12:01:19;100015.56;;;13.30;68.92
78299;BME280;67556;55.656;12.590;2023-04-24T12:03:47;100013.22;;;13.59;67.71
78299;BME280;67556;55.656;12.590;2023-04-24T12:06:14;100006.88;;;13.51;65.33
78299;BME280;67556;55.656;12.590;2023-04-24T12:08:40;100006.03;;;13.54;65.69
78299;BME280;67556;55.656;12.590;2023-04-24T12:11:08;100013.22;;;13.59;64.30
78299;BME280;67556;55.656;12.590;2023-04-24T12:13:35;100015.97;;;13.65;64.53
78299;BME280;67556;55.656;12.590;2023-04-24T12:16:03;100005.28;;;13.67;63.69
78299;BME280;67556;55.656;12.590;2023-04-24T12:18:31;100001.78;;;13.76;63.59
78299;BME280;67556;55.656;12.590;2023-04-24T12:21:22;100007.66;;;13.38;63.91
78299;BME280;67556;55.656;12.590;2023-04-24T12:23:54;100006.75;;;13.39;64.20
78299;BME280;67556;55.656;12.590;2023-04-24T12:26:23;100006.78;;;13.42;63.70
78299;BME280;67556;55.656;12.590;2023-04-24T12:28:51;100001.50;;;13.45;62.87
78299;BME280;67556;55.656;12.590;2023-04-24T12:31:20;100005.16;;;13.56;63.05
78299;BME280;67556;55.656;12.590;2023-04-24T12:33:47;99999.91;;;13.68;63.18
78299;BME280;67556;55.656;12.590;2023-04-24T12:36:13;100000.88;;;13.75;63.28
78299;BME280;67556;55.656;12.590;2023-04-24T12:38:43;99992.78;;;13.69;62.05
78299;BME280;67556;55.656;12.590;2023-04-24T12:41:12;99998.19;;;13.73;61.90
78299;BME280;67556;55.656;12.590;2023-04-24T12:43:50;99997.25;;;13.65;62.36
78299;BME280;67556;55.656;12.590;2023-04-24T12:46:17;99985.66;;;13.66;61.88
78299;BME280;67556;55.656;12.590;2023-04-24T12:48:43;99983.91;;;13.71;62.03
78299;BME280;67556;55.656;12.590;2023-04-24T12:51:12;99987.66;;;13.92;60.64
78299;BME280;67556;55.656;12.590;2023-04-24T12:53:38;99981.38;;;13.90;60.84
78299;BME280;67556;55.656;12.590;2023-04-24T12:56:05;99979.59;;;13.90;60.56
78299;BME280;67556;55.656;12.590;2023-04-24T12:58:31;99983.16;;;13.86;60.77